Time;durP1;ratioP1;P1;durP2;ratioP2;P2;SDS_P1;SDS_P2;PMS_P1;PMS_P2;Temp;Humidity;BMP_temperature;BMP_pressure;BME280_temperature;BME280_humidity;BME280_pressure;Samples;Min_cycle;Max_cycle;Signal;HPM_P1;HPM_P2
2022/08/12 00:44:25;;;;;;;3.03;1.55;;;24.40;67.50;;;;;;5013348;28;20029;-78
2022/08/12 00:46:55;;;;;;;3.08;1.90;;;24.40;67.10;;;;;;5011284;28;20542;-77
2022/08/12 00:49:22;;;;;;;2.22;1.88;;;24.40;66.80;;;;;;5012425;28;20037;-78
2022/08/12 00:52:06;;;;;;;16.35;2.03;;;24.40;67.10;;;;;;5011081;28;20120;-78
2022/08/12 00:54:45;;;;;;;3.63;1.90;;;24.40;66.90;;;;;;5012610;28;20053;-78
2022/08/12 00:57:13;;;;;;;3.25;1.75;;;24.40;66.90;;;;;;5012254;28;20014;-78
2022/08/12 00:59:52;;;;;;;2.80;2.25;;;24.40;67.00;;;;;;5012557;28;20618;-78
2022/08/12 01:02:23;;;;;;;2.90;1.80;;;24.40;66.90;;;;;;5012568;28;20053;-78
2022/08/12 01:13:18;;;;;;;1.40;1.30;;;24.30;67.50;;;;;;5011753;28;20029;-79
2022/08/12 01:15:45;;;;;;;2.25;1.90;;;24.40;67.20;;;;;;5012906;28;20022;-79
2022/08/12 01:18:13;;;;;;;5.25;1.70;;;24.40;66.60;;;;;;5012177;28;20033;-79
2022/08/12 01:20:47;;;;;;;1.80;1.70;;;24.40;67.10;;;;;;5012850;28;20038;-79
2022/08/12 01:23:46;;;;;;;6.70;1.88;;;24.40;67.10;;;;;;5012055;28;20032;-79
2022/08/12 01:26:19;;;;;;;3.08;1.90;;;24.40;67.60;;;;;;5012712;28;20033;-79
2022/08/12 01:28:47;;;;;;;2.53;1.90;;;24.50;67.40;;;;;;4994863;28;20026;-79
2022/08/12 01:31:16;;;;;;;3.65;1.63;;;24.40;67.70;;;;;;4993016;28;20031;-79
2022/08/12 01:34:04;;;;;;;3.53;2.38;;;24.40;67.40;;;;;;5008400;28;20026;-81
2022/08/12 01:36:42;;;;;;;3.03;2.10;;;24.30;68.40;;;;;;4993295;28;20030;-81
2022/08/12 01:39:09;;;;;;;3.05;1.63;;;24.30;67.90;;;;;;5011729;28;20026;-80
2022/08/12 01:41:43;;;;;;;4.15;1.65;;;24.30;67.80;;;;;;5012098;28;20037;-79
2022/08/12 01:44:10;;;;;;;4.15;1.88;;;24.20;68.20;;;;;;5010660;28;20021;-79
2022/08/12 01:47:05;;;;;;;2.88;1.60;;;24.30;67.10;;;;;;5010864;28;20489;-78
2022/08/12 01:50:04;;;;;;;4.60;1.73;;;24.30;66.80;;;;;;5001030;28;20805;-79
2022/08/12 01:52:36;;;;;;;2.33;1.77;;;24.30;67.30;;;;;;5011408;28;20144;-79
2022/08/12 01:55:05;;;;;;;4.20;1.83;;;24.40;66.70;;;;;;5011158;28;20037;-77
2022/08/12 01:57:43;;;;;;;5.45;1.98;;;24.40;67.80;;;;;;5010112;28;20392;-79
2022/08/12 02:00:16;;;;;;;4.55;2.00;;;24.40;68.00;;;;;;5003317;28;20033;-80
2022/08/12 02:03:11;;;;;;;1.77;1.63;;;24.30;68.00;;;;;;5011626;28;20080;-79
2022/08/12 02:11:50;;;;;;;2.85;1.98;;;24.20;68.20;;;;;;4992968;28;20387;-78
2022/08/12 02:14:23;;;;;;;6.05;1.75;;;24.20;67.90;;;;;;5011213;28;20101;-78
2022/08/12 02:16:49;;;;;;;;;;;24.20;68.30;;;;;;5011619;28;20026;-78
2022/08/12 02:19:33;;;;;;;3.58;1.75;;;24.20;68.30;;;;;;5011568;28;20057;-79
2022/08/12 02:22:04;;;;;;;6.10;1.98;;;24.20;68.60;;;;;;5011352;28;20042;-78
2022/08/12 02:24:33;;;;;;;4.70;2.05;;;24.20;68.90;;;;;;5009870;28;20022;-79
2022/08/12 02:26:59;;;;;;;4.10;1.92;;;24.10;69.50;;;;;;5009190;28;20104;-78
2022/08/12 02:29:26;;;;;;;4.20;1.63;;;24.00;69.20;;;;;;5011601;28;20024;-79
2022/08/12 02:31:53;;;;;;;3.33;1.92;;;24.00;69.80;;;;;;5010743;28;20105;-77
2022/08/12 02:34:21;;;;;;;4.70;1.80;;;23.90;70.00;;;;;;5011352;28;20033;-78
2022/08/12 02:36:52;;;;;;;3.47;2.10;;;24.00;70.20;;;;;;5009496;28;20183;-78
2022/08/12 02:39:20;;;;;;;3.05;1.80;;;24.00;69.70;;;;;;5011005;28;20487;-78
2022/08/12 02:41:47;;;;;;;4.68;2.10;;;24.00;69.30;;;;;;5009558;28;20395;-78
2022/08/12 02:44:16;;;;;;;6.22;1.90;;;24.10;69.30;;;;;;5025549;28;20024;-78
2022/08/12 02:46:48;;;;;;;2.10;1.90;;;24.10;70.00;;;;;;5010874;28;20113;-79
2022/08/12 02:49:24;;;;;;;2.57;2.13;;;24.00;69.80;;;;;;5010336;28;20407;-78
2022/08/12 02:51:50;;;;;;;3.42;2.15;;;24.00;69.80;;;;;;5011874;28;20858;-79
2022/08/12 02:54:16;;;;;;;4.20;1.92;;;24.10;70.00;;;;;;5010935;28;20120;-78
2022/08/12 02:56:42;;;;;;;4.18;1.92;;;24.10;69.70;;;;;;5010671;28;20028;-78
2022/08/12 02:59:15;;;;;;;5.15;2.00;;;24.00;69.30;;;;;;5010790;28;20034;-77
2022/08/12 03:01:48;;;;;;;2.90;1.70;;;24.10;70.00;;;;;;5009312;28;20030;-77
2022/08/12 03:04:40;;;;;;;3.15;1.95;;;24.10;70.00;;;;;;5010129;28;20018;-77
2022/08/12 03:07:29;;;;;;;4.45;2.20;;;24.10;69.30;;;;;;5010370;28;20021;-78
2022/08/12 03:09:58;;;;;;;3.80;2.28;;;24.10;69.50;;;;;;5010088;28;20492;-78
2022/08/12 03:12:25;;;;;;;9.98;2.00;;;24.10;70.10;;;;;;5010338;28;20097;-78
2022/08/12 03:14:53;;;;;;;2.25;1.73;;;24.10;69.20;;;;;;5010965;28;20221;-78
2022/08/12 03:17:32;;;;;;;9.32;2.30;;;24.10;69.10;;;;;;5008981;28;20030;-78
2022/08/12 03:19:59;;;;;;;2.05;1.80;;;24.10;68.70;;;;;;5011118;28;20037;-78
2022/08/12 03:22:25;;;;;;;1.80;1.67;;;24.10;68.70;;;;;;5010325;28;20022;-78
2022/08/12 03:24:52;;;;;;;3.03;2.00;;;24.20;68.80;;;;;;5010879;28;20049;-80
2022/08/12 03:27:18;;;;;;;7.75;2.13;;;24.20;69.20;;;;;;5010367;28;20065;-78
2022/08/12 03:29:46;;;;;;;5.60;2.42;;;24.10;68.90;;;;;;5009459;28;20010;-78
2022/08/12 03:32:13;;;;;;;3.42;2.20;;;24.20;68.90;;;;;;5009964;28;20048;-78
2022/08/12 03:34:40;;;;;;;1.92;1.80;;;24.20;69.20;;;;;;5010951;28;20128;-78
2022/08/12 03:37:07;;;;;;;3.78;2.20;;;24.10;69.50;;;;;;5013768;28;20480;-78
2022/08/12 03:42:12;;;;;;;3.35;2.03;;;24.10;69.10;;;;;;5013753;28;20089;-78
2022/08/12 04:01:46;;;;;;;3.60;2.38;;;23.80;70.40;;;;;;5013472;28;20041;-79
2022/08/12 04:04:12;;;;;;;2.20;2.00;;;23.80;70.30;;;;;;5014179;28;20030;-79
2022/08/12 04:06:45;;;;;;;1.88;1.70;;;23.80;70.40;;;;;;5014217;28;20369;-79
2022/08/12 04:09:12;;;;;;;4.50;2.20;;;23.80;70.30;;;;;;5013759;28;20113;-78
2022/08/12 04:14:26;;;;;;;5.53;2.05;;;23.80;70.60;;;;;;5013650;28;20033;-77
2022/08/12 04:16:52;;;;;;;7.80;2.20;;;23.80;70.70;;;;;;5013304;28;20049;-78
2022/08/12 04:19:18;;;;;;;5.18;2.28;;;23.90;70.70;;;;;;5012386;28;20030;-78
2022/08/12 04:21:45;;;;;;;5.85;2.22;;;23.80;70.80;;;;;;5012164;28;20033;-77
2022/08/12 04:24:12;;;;;;;3.63;2.10;;;23.80;71.00;;;;;;5013139;28;20105;-79
2022/08/12 04:26:39;;;;;;;3.13;2.13;;;23.80;71.20;;;;;;5013883;28;20018;-81
2022/08/12 04:29:05;;;;;;;7.20;2.45;;;23.70;71.30;;;;;;5012488;28;20384;-83
2022/08/12 04:31:31;;;;;;;5.65;2.45;;;23.70;71.50;;;;;;5014328;28;20426;-85
2022/08/12 04:33:58;;;;;;;3.30;2.03;;;23.70;71.70;;;;;;5013404;28;20097;-84
2022/08/12 04:36:25;;;;;;;3.20;2.30;;;23.70;71.60;;;;;;5014558;28;20030;-87
2022/08/12 04:38:52;;;;;;;4.47;2.40;;;23.70;71.60;;;;;;5012383;28;20034;-85
2022/08/12 04:41:19;;;;;;;10.77;2.17;;;23.70;71.50;;;;;;5013441;28;20040;-89
2022/08/12 04:43:46;;;;;;;11.05;2.28;;;23.70;71.40;;;;;;5012181;28;20029;-83
2022/08/12 04:46:12;;;;;;;4.53;1.90;;;23.70;71.20;;;;;;4993645;28;20031;-83
2022/08/12 04:48:38;;;;;;;1.67;1.58;;;23.70;71.00;;;;;;5010695;28;20076;-84
2022/08/12 04:51:05;;;;;;;5.65;2.13;;;23.70;71.00;;;;;;5012782;28;20236;-86
2022/08/12 04:53:31;;;;;;;5.10;2.28;;;23.80;71.10;;;;;;5012138;28;20065;-85
2022/08/12 04:55:57;;;;;;;2.75;1.80;;;23.80;70.80;;;;;;5014323;28;20026;-84
2022/08/12 04:58:23;;;;;;;2.30;1.98;;;23.80;70.70;;;;;;5012274;28;20025;-93
2022/08/12 05:00:48;;;;;;;3.50;2.25;;;23.90;70.90;;;;;;5013620;28;20373;-83
2022/08/12 05:03:14;;;;;;;3.75;1.90;;;23.90;70.70;;;;;;5013287;28;20022;-84
2022/08/12 05:05:41;;;;;;;3.20;2.00;;;23.90;70.60;;;;;;5014066;28;20416;-88
2022/08/12 05:08:12;;;;;;;2.50;1.95;;;23.90;70.30;;;;;;5013230;28;20022;-90
2022/08/12 05:10:37;;;;;;;5.40;2.17;;;24.00;70.20;;;;;;5013705;28;20488;-85
2022/08/12 05:13:10;;;;;;;2.90;1.75;;;24.10;70.20;;;;;;5012207;28;20033;-87
2022/08/12 05:15:39;;;;;;;6.38;1.80;;;24.10;70.50;;;;;;5013869;28;20104;-87
2022/08/12 05:18:05;;;;;;;3.10;2.00;;;24.10;70.70;;;;;;5012368;28;20088;-85
2022/08/12 05:20:31;;;;;;;2.15;1.95;;;24.10;70.90;;;;;;5012488;28;20166;-85
2022/08/12 05:23:11;;;;;;;3.97;1.90;;;24.20;71.00;;;;;;5013679;28;20039;-89
2022/08/12 05:25:38;;;;;;;1.88;1.63;;;24.20;71.10;;;;;;5012841;28;20018;-87
2022/08/12 05:28:07;;;;;;;3.90;2.17;;;24.20;71.40;;;;;;5013537;28;20025;-89
2022/08/12 05:30:33;;;;;;;3.78;2.00;;;24.20;71.60;;;;;;5013614;28;20028;-90
2022/08/12 05:33:04;;;;;;;3.45;1.98;;;24.20;71.60;;;;;;5011986;28;20472;-86
2022/08/12 05:35:38;;;;;;;2.35;1.75;;;24.30;71.90;;;;;;5012448;28;20026;-86
2022/08/12 05:41:17;;;;;;;6.38;2.22;;;24.40;72.00;;;;;;5013171;28;20040;-86
2022/08/12 05:43:45;;;;;;;5.28;2.00;;;24.40;72.00;;;;;;5011437;28;20041;-88
2022/08/12 05:46:10;;;;;;;3.47;2.20;;;24.40;72.10;;;;;;5014235;28;20025;-89
2022/08/12 05:48:36;;;;;;;4.60;2.10;;;24.50;72.40;;;;;;5014040;28;20122;-91
2022/08/12 05:51:02;;;;;;;4.00;2.20;;;24.50;72.20;;;;;;5013005;28;20037;-87
2022/08/12 05:53:28;;;;;;;2.47;1.70;;;24.60;72.00;;;;;;5013107;28;20196;-88
2022/08/12 05:55:53;;;;;;;2.75;1.85;;;24.70;72.00;;;;;;5014288;28;20022;-84
2022/08/12 05:58:20;;;;;;;2.85;2.17;;;24.70;71.90;;;;;;5010852;28;20380;-85
2022/08/12 06:00:45;;;;;;;7.93;2.50;;;24.70;71.90;;;;;;5012639;28;20030;-86
2022/08/12 06:03:12;;;;;;;4.85;1.98;;;24.70;71.40;;;;;;5012233;28;20018;-84
2022/08/12 06:05:38;;;;;;;6.88;2.20;;;24.70;71.70;;;;;;5013146;28;20026;-85
2022/08/12 06:08:06;;;;;;;7.57;2.40;;;24.70;71.80;;;;;;5012222;28;20456;-84
2022/08/12 06:10:33;;;;;;;6.07;2.00;;;24.70;71.80;;;;;;5011171;28;20400;-84
2022/08/12 06:13:01;;;;;;;2.17;1.80;;;24.80;71.90;;;;;;5010277;28;20026;-87
2022/08/12 06:15:27;;;;;;;6.25;2.17;;;24.70;71.90;;;;;;5012289;28;20044;-83
2022/08/12 06:17:54;;;;;;;3.97;2.00;;;24.70;71.90;;;;;;5011284;28;20510;-79
2022/08/12 06:20:20;;;;;;;8.35;2.25;;;24.70;72.90;;;;;;5011877;28;20209;-80
2022/08/12 06:22:46;;;;;;;3.05;2.17;;;24.70;73.40;;;;;;5011512;28;20109;-81
2022/08/12 06:25:17;;;;;;;3.65;2.05;;;24.60;72.00;;;;;;5011439;28;20113;-77
2022/08/12 06:27:47;;;;;;;2.28;1.80;;;24.60;71.40;;;;;;5010921;28;20026;-81
2022/08/12 06:30:19;;;;;;;8.73;2.53;;;24.60;71.10;;;;;;5003734;28;20053;-81
2022/08/12 06:32:48;;;;;;;4.57;3.28;;;24.60;70.70;;;;;;5008922;28;20533;-79
2022/08/12 06:35:16;;;;;;;10.48;3.97;;;24.60;70.80;;;;;;5010225;28;20400;-81
2022/08/12 06:37:47;;;;;;;8.13;3.42;;;24.60;70.20;;;;;;5011074;28;20014;-81
2022/08/12 06:40:13;;;;;;;5.27;3.40;;;24.60;70.70;;;;;;5004639;28;20404;-80
2022/08/12 06:42:46;;;;;;;4.72;2.50;;;24.60;70.30;;;;;;5010815;28;20033;-82
2022/08/12 06:45:15;;;;;;;6.10;3.85;;;24.60;69.20;;;;;;5004724;28;20029;-81
2022/08/12 06:47:41;;;;;;;8.00;5.80;;;24.70;69.30;;;;;;5010947;28;20022;-82
2022/08/12 06:50:08;;;;;;;11.13;5.07;;;24.70;69.50;;;;;;5009884;28;20022;-82
2022/08/12 06:52:34;;;;;;;6.97;4.38;;;24.80;69.70;;;;;;5010720;28;20050;-81
2022/08/12 06:55:00;;;;;;;7.75;4.13;;;24.90;69.50;;;;;;5011259;28;20029;-82
2022/08/12 06:57:26;;;;;;;4.55;3.20;;;25.00;69.10;;;;;;5010669;28;20068;-83
2022/08/12 06:59:53;;;;;;;6.43;2.55;;;25.10;68.80;;;;;;5009814;28;20026;-82
2022/08/12 07:02:21;;;;;;;5.85;2.65;;;25.20;68.80;;;;;;5009043;28;20030;-82
2022/08/12 07:04:51;;;;;;;8.98;3.10;;;25.30;68.50;;;;;;5011175;28;20025;-80
2022/08/12 07:07:17;;;;;;;4.10;2.40;;;25.40;68.30;;;;;;5009153;28;20488;-80
2022/08/12 07:09:43;;;;;;;6.22;2.70;;;25.50;68.10;;;;;;5010844;28;20030;-79
2022/08/12 07:12:16;;;;;;;4.22;2.20;;;25.60;68.10;;;;;;5014169;28;20046;-79
2022/08/12 07:14:42;;;;;;;5.93;2.47;;;25.70;68.00;;;;;;5013725;28;20032;-78
2022/08/12 07:17:07;;;;;;;2.58;1.90;;;25.90;68.10;;;;;;5014789;28;20025;-80
2022/08/12 07:19:34;;;;;;;3.55;1.90;;;26.00;67.60;;;;;;5014851;28;20056;-79
2022/08/12 07:22:05;;;;;;;6.50;2.92;;;26.00;67.10;;;;;;5014559;28;20091;-80
2022/08/12 07:24:31;;;;;;;5.40;2.85;;;26.10;67.30;;;;;;5014148;28;20080;-80
2022/08/12 07:26:57;;;;;;;4.03;1.77;;;26.10;67.20;;;;;;5014437;28;20022;-80
2022/08/12 07:29:24;;;;;;;5.35;2.05;;;25.80;67.20;;;;;;5014868;28;20030;-80
2022/08/12 07:31:51;;;;;;;4.10;1.92;;;25.80;68.30;;;;;;5013118;28;20030;-80
2022/08/12 07:34:17;;;;;;;2.75;1.90;;;25.80;68.20;;;;;;5014911;28;20026;-80
2022/08/12 07:36:44;;;;;;;3.65;1.75;;;25.80;68.80;;;;;;5014160;28;20534;-80
2022/08/12 07:39:10;;;;;;;3.22;1.90;;;25.70;68.30;;;;;;5014226;28;20108;-80
2022/08/12 07:41:37;;;;;;;3.53;1.67;;;25.60;69.10;;;;;;5014737;28;20041;-80
2022/08/12 07:44:06;;;;;;;4.97;2.13;;;25.60;69.40;;;;;;5013974;28;20191;-81
2022/08/12 07:46:36;;;;;;;7.13;2.17;;;25.70;69.80;;;;;;5014504;28;20594;-80
2022/08/12 07:49:10;;;;;;;3.60;2.10;;;25.80;69.50;;;;;;5013723;28;20388;-81
2022/08/12 07:51:35;;;;;;;4.63;2.00;;;25.90;69.20;;;;;;5014169;28;20053;-82
2022/08/12 07:54:08;;;;;;;3.80;2.30;;;26.00;68.60;;;;;;5013430;28;20476;-81
2022/08/12 07:56:34;;;;;;;2.90;1.88;;;26.00;69.10;;;;;;5014256;28;20052;-81
2022/08/12 07:59:01;;;;;;;11.13;2.03;;;26.00;68.80;;;;;;5013667;28;20029;-80
2022/08/12 08:01:28;;;;;;;4.93;1.80;;;26.20;68.50;;;;;;5013049;28;20128;-80
2022/08/12 08:06:41;;;;;;;4.22;1.98;;;26.60;68.40;;;;;;5014282;28;20636;-79
2022/08/12 08:09:09;;;;;;;1.75;1.65;;;26.80;67.30;;;;;;5013589;28;20013;-79
2022/08/12 08:14:20;;;;;;;3.53;1.77;;;26.90;67.10;;;;;;5014093;28;20033;-79
2022/08/12 08:16:49;;;;;;;8.15;2.33;;;27.00;66.40;;;;;;5011983;28;20480;-79
2022/08/12 08:19:22;;;;;;;4.10;1.85;;;27.20;66.60;;;;;;5012326;28;20090;-79
2022/08/12 08:21:53;;;;;;;6.22;2.30;;;27.20;65.60;;;;;;5010940;28;20427;-83
2022/08/12 08:24:23;;;;;;;8.10;2.28;;;27.20;65.70;;;;;;5013358;28;20022;-80
2022/08/12 08:26:52;;;;;;;3.33;1.70;;;27.20;65.00;;;;;;5012994;28;20056;-80
2022/08/12 08:29:20;;;;;;;2.95;1.73;;;27.30;65.00;;;;;;5013533;28;20030;-80
2022/08/12 08:31:49;;;;;;;1.88;1.65;;;27.40;64.90;;;;;;5013000;28;20033;-81
2022/08/12 08:34:16;;;;;;;2.28;1.77;;;27.40;63.60;;;;;;5012504;28;20076;-81
2022/08/12 08:36:43;;;;;;;2.92;1.67;;;27.50;63.80;;;;;;5013104;28;20034;-80
2022/08/12 08:39:12;;;;;;;2.55;1.85;;;27.50;63.20;;;;;;5012879;28;20022;-80
2022/08/12 08:44:23;;;;;;;3.35;1.60;;;27.50;63.10;;;;;;5013079;28;20521;-79
2022/08/12 08:46:49;;;;;;;2.03;1.55;;;27.40;63.00;;;;;;5011781;28;20099;-80
2022/08/12 08:49:16;;;;;;;5.78;2.10;;;27.40;63.80;;;;;;5013402;28;20069;-80
2022/08/12 08:51:46;;;;;;;2.78;1.65;;;27.30;63.00;;;;;;5012759;28;20087;-80
2022/08/12 08:54:12;;;;;;;5.63;1.92;;;27.30;63.50;;;;;;5012057;28;20542;-79
2022/08/12 08:56:48;;;;;;;9.13;1.80;;;27.30;63.50;;;;;;5013266;28;20026;-80
2022/08/12 08:59:15;;;;;;;7.53;1.90;;;27.20;63.80;;;;;;5027402;28;20309;-74
2022/08/12 09:01:41;;;;;;;1.60;1.50;;;27.20;64.00;;;;;;5012674;28;20034;-75
2022/08/12 09:04:09;;;;;;;5.43;1.88;;;27.20;64.30;;;;;;5012903;28;20033;-75
2022/08/12 09:06:35;;;;;;;2.50;1.70;;;27.10;64.90;;;;;;5012827;28;20111;-74
2022/08/12 09:09:04;;;;;;;2.92;1.80;;;27.10;64.50;;;;;;5012131;28;20476;-74
2022/08/12 09:14:14;;;;;;;10.60;2.17;;;27.30;65.10;;;;;;5011640;28;20025;-73
2022/08/12 09:16:40;;;;;;;1.98;1.50;;;27.40;65.00;;;;;;5012302;28;20026;-75
2022/08/12 09:19:12;;;;;;;3.45;1.80;;;27.50;64.60;;;;;;5012554;28;20026;-74
2022/08/12 09:21:38;;;;;;;3.10;1.50;;;27.60;63.80;;;;;;5012549;28;20499;-72
2022/08/12 09:24:06;;;;;;;2.85;2.00;;;27.70;63.80;;;;;;5012309;28;20054;-74
2022/08/12 09:26:33;;;;;;;5.07;1.75;;;27.70;64.40;;;;;;5012577;28;20046;-74
2022/08/12 09:29:00;;;;;;;3.00;1.77;;;27.80;64.40;;;;;;5011482;28;20029;-74
2022/08/12 09:31:26;;;;;;;2.75;1.70;;;27.90;64.40;;;;;;5011373;28;20022;-74
2022/08/12 09:33:53;;;;;;;5.32;1.70;;;28.00;63.00;;;;;;5011575;28;20032;-73
2022/08/12 09:36:20;;;;;;;1.83;1.40;;;28.00;63.50;;;;;;5012617;28;20022;-75
2022/08/12 09:38:46;;;;;;;1.58;1.48;;;28.10;62.60;;;;;;5011513;28;20029;-73
2022/08/12 09:41:14;;;;;;;5.53;1.80;;;28.10;63.00;;;;;;5012464;28;20377;-75
2022/08/12 09:46:30;;;;;;;1.88;1.60;;;28.30;62.00;;;;;;4993126;28;20041;-73
2022/08/12 09:48:58;;;;;;;1.85;1.60;;;28.40;61.90;;;;;;5011770;28;20022;-75
2022/08/12 09:51:32;;;;;;;2.42;1.60;;;28.50;59.30;;;;;;5012121;28;20026;-74
2022/08/12 09:53:57;;;;;;;2.63;1.58;;;28.70;60.50;;;;;;5010271;28;20041;-74
2022/08/12 09:56:24;;;;;;;1.52;1.42;;;28.80;58.60;;;;;;5012146;28;20499;-75
2022/08/12 09:58:50;;;;;;;1.48;1.38;;;29.00;60.00;;;;;;5011439;28;20021;-74
2022/08/12 10:01:18;;;;;;;4.63;2.00;;;29.20;59.90;;;;;;5011904;28;20041;-74
2022/08/12 10:03:45;;;;;;;1.83;1.55;;;29.40;59.20;;;;;;5011230;28;20014;-73
2022/08/12 10:06:11;;;;;;;2.03;1.60;;;29.50;59.50;;;;;;5011963;28;20488;-74
2022/08/12 10:08:38;;;;;;;3.58;1.38;;;29.90;58.10;;;;;;5011206;28;20084;-73
2022/08/12 10:13:52;;;;;;;4.80;1.73;;;30.40;57.60;;;;;;5011038;28;20060;-74
2022/08/12 10:16:17;;;;;;;2.30;1.60;;;30.60;57.50;;;;;;5011725;28;20033;-74
2022/08/12 10:18:50;;;;;;;2.85;1.58;;;30.70;57.80;;;;;;5011104;28;20022;-73
2022/08/12 10:21:18;;;;;;;4.28;1.70;;;30.80;57.50;;;;;;4992163;28;20073;-74
2022/08/12 10:23:46;;;;;;;4.93;1.77;;;30.90;57.60;;;;;;5008147;28;20045;-74
2022/08/12 10:31:49;;;;;;;3.47;1.67;;;30.70;57.10;;;;;;5011074;28;20028;-74
2022/08/12 10:34:14;;;;;;;2.72;1.77;;;30.60;57.90;;;;;;5010687;28;20025;-74
2022/08/12 10:36:41;;;;;;;2.75;1.65;;;30.50;56.60;;;;;;5010957;28;20476;-76
2022/08/12 10:39:12;;;;;;;1.83;1.58;;;30.40;57.50;;;;;;5011161;28;20376;-74
2022/08/12 10:44:23;;;;;;;2.40;1.48;;;30.30;57.10;;;;;;5011360;28;20041;-75
2022/08/12 10:46:51;;;;;;;3.75;1.70;;;30.20;57.40;;;;;;5010164;28;20026;-74
2022/08/12 10:49:18;;;;;;;2.30;1.52;;;30.10;56.30;;;;;;5011178;28;20014;-75
2022/08/12 10:51:44;;;;;;;2.40;1.60;;;30.10;56.40;;;;;;5010808;28;20028;-74
2022/08/12 10:54:12;;;;;;;1.60;1.50;;;30.10;57.60;;;;;;5010799;28;20033;-74
2022/08/12 10:56:39;;;;;;;4.22;1.50;;;30.10;56.60;;;;;;5009735;28;20121;-74
2022/08/12 10:59:06;;;;;;;2.28;1.55;;;30.10;57.00;;;;;;5010821;28;20476;-75
2022/08/12 11:01:32;;;;;;;4.43;1.50;;;30.20;55.10;;;;;;5010943;28;20042;-75
2022/08/12 11:04:01;;;;;;;3.03;1.58;;;30.10;54.40;;;;;;5010342;28;20022;-76
2022/08/12 11:06:27;;;;;;;3.05;1.50;;;30.00;56.70;;;;;;5011164;28;20117;-74
2022/08/12 11:08:55;;;;;;;3.72;1.65;;;30.10;56.20;;;;;;5010113;28;20518;-75
2022/08/12 11:11:21;;;;;;;1.70;1.60;;;30.20;56.10;;;;;;5011220;28;20026;-75
2022/08/12 11:13:47;;;;;;;2.00;1.60;;;30.30;55.80;;;;;;5008844;28;20030;-75
2022/08/12 11:16:16;;;;;;;2.15;1.40;;;30.40;55.60;;;;;;5010966;28;20091;-74
2022/08/12 11:18:42;;;;;;;3.42;2.00;;;30.60;55.90;;;;;;5010219;28;20045;-75
2022/08/12 11:21:08;;;;;;;7.25;1.90;;;30.80;55.90;;;;;;5011058;28;20510;-74
2022/08/12 11:23:34;;;;;;;1.95;1.52;;;31.00;54.80;;;;;;5010247;28;20144;-73
2022/08/12 11:25:59;;;;;;;3.97;1.67;;;31.10;53.90;;;;;;5009122;28;20049;-74
2022/08/12 11:28:25;;;;;;;1.83;1.65;;;31.20;53.80;;;;;;5006559;28;20389;-74
2022/08/12 11:30:51;;;;;;;2.35;1.60;;;31.30;54.40;;;;;;5006354;28;20464;-74
2022/08/12 11:33:17;;;;;;;2.40;1.67;;;31.40;54.10;;;;;;5007729;28;20025;-74
2022/08/12 11:35:43;;;;;;;1.48;1.30;;;31.60;54.30;;;;;;5005380;28;20038;-74
2022/08/12 11:38:09;;;;;;;5.55;1.95;;;31.90;54.20;;;;;;5006891;28;20219;-74
2022/08/12 11:40:36;;;;;;;1.77;1.60;;;32.00;54.10;;;;;;5025335;28;20060;-75
2022/08/12 11:43:02;;;;;;;4.63;1.45;;;32.20;54.30;;;;;;5017704;28;20018;-75
2022/08/12 11:45:29;;;;;;;4.88;1.88;;;32.20;53.50;;;;;;5007548;28;20034;-75
2022/08/12 11:48:00;;;;;;;4.40;1.90;;;31.70;57.90;;;;;;5006328;28;20105;-76
2022/08/12 11:50:26;;;;;;;3.10;1.73;;;31.50;57.80;;;;;;5006026;28;20030;-75
2022/08/12 11:52:52;;;;;;;2.00;1.63;;;31.50;57.00;;;;;;5005376;28;20053;-74
2022/08/12 11:55:18;;;;;;;2.35;1.40;;;31.40;59.20;;;;;;5010661;28;20030;-74
2022/08/12 11:57:52;;;;;;;3.13;1.80;;;31.40;56.40;;;;;;5012546;28;20369;-75
2022/08/12 12:00:19;;;;;;;3.50;1.58;;;31.50;57.30;;;;;;5015341;28;20042;-74
2022/08/12 12:02:46;;;;;;;5.32;1.88;;;31.70;54.70;;;;;;5009348;28;20390;-75
2022/08/12 12:05:14;;;;;;;6.93;1.65;;;31.80;53.30;;;;;;5013332;28;20044;-75
2022/08/12 12:07:41;;;;;;;4.13;1.85;;;31.60;59.20;;;;;;5035495;28;20128;-75
2022/08/12 12:10:07;;;;;;;8.23;2.47;;;31.30;61.90;;;;;;5010214;28;20018;-74
2022/08/12 12:12:34;;;;;;;3.83;2.08;;;31.10;65.50;;;;;;5009828;28;20030;-74
2022/08/12 12:15:00;;;;;;;5.45;2.17;;;31.70;61.60;;;;;;5009071;28;20022;-73
2022/08/12 12:17:26;;;;;;;4.95;2.10;;;32.20;62.00;;;;;;5009833;28;20105;-74
2022/08/12 12:19:53;;;;;;;6.85;1.67;;;33.50;60.60;;;;;;5010025;28;20025;-74
2022/08/12 12:22:19;;;;;;;3.17;1.83;;;34.80;57.50;;;;;;5010205;28;20129;-74
2022/08/12 12:24:50;;;;;;;3.58;1.98;;;35.30;56.10;;;;;;5010097;28;20022;-74
2022/08/12 12:27:19;;;;;;;6.85;1.80;;;35.00;56.50;;;;;;5009780;28;20060;-76
2022/08/12 12:29:45;;;;;;;10.68;2.00;;;34.30;59.00;;;;;;5009608;28;20172;-73
2022/08/12 12:32:11;;;;;;;2.42;1.83;;;34.30;62.20;;;;;;5009834;28;20025;-74
2022/08/12 12:34:37;;;;;;;4.18;2.10;;;33.40;61.50;;;;;;5007144;28;20018;-73
2022/08/12 12:37:03;;;;;;;4.53;2.00;;;32.10;61.00;;;;;;5009522;28;21011;-75
2022/08/12 12:39:29;;;;;;;4.15;1.95;;;31.00;68.80;;;;;;5009747;28;20025;-73
2022/08/12 12:41:54;;;;;;;3.30;1.80;;;30.10;71.70;;;;;;5009527;28;20041;-75
2022/08/12 12:44:20;;;;;;;4.90;2.00;;;29.20;71.50;;;;;;5009263;28;20049;-74
2022/08/12 12:46:47;;;;;;;3.25;1.95;;;28.50;75.70;;;;;;5009263;28;20531;-74
2022/08/12 12:49:13;;;;;;;9.48;2.22;;;27.90;76.80;;;;;;5007606;28;20045;-74
2022/08/12 12:51:39;;;;;;;4.53;1.88;;;27.40;77.10;;;;;;5009657;28;20022;-73
2022/08/12 12:54:04;;;;;;;3.63;1.67;;;27.20;70.90;;;;;;5007589;28;20695;-75
2022/08/12 12:56:30;;;;;;;5.00;1.50;;;27.30;68.70;;;;;;5008243;28;20026;-74
2022/08/12 12:58:56;;;;;;;4.32;1.70;;;27.80;66.10;;;;;;5009001;28;20084;-74
2022/08/12 13:01:25;;;;;;;5.38;1.70;;;28.00;65.10;;;;;;5009927;28;20034;-74
2022/08/12 13:03:53;;;;;;;5.78;1.92;;;28.00;63.50;;;;;;5008827;28;20037;-74
2022/08/12 13:06:24;;;;;;;2.70;1.50;;;27.90;62.50;;;;;;5008589;28;20030;-74
2022/08/12 13:08:52;;;;;;;2.97;1.40;;;27.70;62.80;;;;;;5007861;28;20021;-72
2022/08/12 13:11:20;;;;;;;5.25;1.58;;;27.50;63.10;;;;;;5009614;28;20069;-71
2022/08/12 13:13:48;;;;;;;3.75;1.58;;;27.30;64.20;;;;;;5008724;28;20029;-71
2022/08/12 13:16:19;;;;;;;3.83;1.90;;;26.90;65.70;;;;;;5005084;28;20053;-72
2022/08/12 13:18:49;;;;;;;5.72;1.95;;;26.80;65.90;;;;;;5006981;28;20013;-72
2022/08/12 13:21:16;;;;;;;6.82;2.50;;;26.70;66.20;;;;;;5001067;28;20044;-72
2022/08/12 13:23:47;;;;;;;4.53;1.70;;;26.50;66.60;;;;;;5009019;28;20392;-72
2022/08/12 13:26:16;;;;;;;2.20;1.50;;;26.40;67.30;;;;;;4989804;28;20034;-72
2022/08/12 13:28:46;;;;;;;5.72;2.00;;;26.40;67.60;;;;;;5006797;28;20424;-72
2022/08/12 13:31:15;;;;;;;7.90;2.20;;;26.30;67.40;;;;;;5009350;28;20041;-71
2022/08/12 13:33:41;;;;;;;4.03;1.75;;;26.30;67.70;;;;;;5008255;28;20120;-71
2022/08/12 13:36:09;;;;;;;4.55;1.80;;;26.20;67.90;;;;;;5009075;28;20539;-72
2022/08/12 13:38:39;;;;;;;4.10;1.63;;;26.20;67.80;;;;;;5008233;28;20476;-72
2022/08/12 13:41:06;;;;;;;2.15;1.50;;;26.20;68.20;;;;;;5007658;28;20298;-72
2022/08/12 13:43:32;;;;;;;5.35;2.00;;;26.20;68.00;;;;;;5008636;28;20492;-72
2022/08/12 13:45:59;;;;;;;3.60;1.80;;;26.10;68.30;;;;;;5025010;28;20036;-71
2022/08/12 13:48:25;;;;;;;3.90;1.65;;;25.90;68.50;;;;;;5010554;28;20018;-70
2022/08/12 13:50:51;;;;;;;3.70;2.35;;;25.90;68.90;;;;;;5008730;28;20140;-71
2022/08/12 13:53:17;;;;;;;2.80;1.50;;;25.90;69.10;;;;;;5006684;28;20042;-71
2022/08/12 13:55:47;;;;;;;10.45;2.10;;;25.80;69.70;;;;;;5008565;28;20034;-72
2022/08/12 13:58:18;;;;;;;6.43;1.92;;;25.70;73.70;;;;;;5008289;28;20034;-72
2022/08/12 14:00:50;;;;;;;4.35;2.22;;;25.50;72.20;;;;;;5007811;28;20499;-72
2022/08/12 14:03:17;;;;;;;3.75;1.73;;;25.40;74.70;;;;;;5007761;28;20026;-73
2022/08/12 14:05:43;;;;;;;5.82;1.85;;;25.20;77.30;;;;;;5007286;28;20041;-72
2022/08/12 14:08:10;;;;;;;5.72;1.90;;;25.10;77.20;;;;;;5007889;28;20519;-73
2022/08/12 14:10:38;;;;;;;26.27;3.08;;;24.90;76.40;;;;;;5006964;28;20145;-72
2022/08/12 14:13:19;;;;;;;8.27;2.35;;;24.50;95.20;;;;;;5006873;28;20177;-72
2022/08/12 14:15:51;;;;;;;4.50;1.93;;;23.30;96.30;;;;;;5007940;28;20029;-73
2022/08/12 14:18:19;;;;;;;4.43;1.88;;;22.60;94.70;;;;;;5007810;28;20025;-71
2022/08/12 14:20:51;;;;;;;3.25;1.88;;;22.50;94.10;;;;;;5007313;28;20089;-73
2022/08/12 14:23:18;;;;;;;8.75;2.30;;;22.60;92.50;;;;;;5007899;28;20049;-73
2022/08/12 14:25:45;;;;;;;9.85;2.40;;;22.70;94.70;;;;;;5007213;28;20509;-73
2022/08/12 14:28:15;;;;;;;7.07;2.17;;;22.60;94.90;;;;;;5007477;28;20492;-72
2022/08/12 14:30:53;;;;;;;5.65;2.13;;;22.60;93.60;;;;;;5008198;28;20396;-72
2022/08/12 14:33:37;;;;;;;8.23;2.00;;;22.70;93.50;;;;;;5007851;28;20087;-73
2022/08/12 14:36:05;;;;;;;3.90;1.80;;;22.70;93.40;;;;;;5007835;28;20037;-72
2022/08/12 14:38:36;;;;;;;5.63;1.90;;;23.00;91.10;;;;;;5007139;28;20026;-72
2022/08/12 14:41:03;;;;;;;10.93;2.08;;;23.30;90.30;;;;;;5007620;28;20034;-71